createdAt,value
2023-04-03T00:00:35.236Z,1.78
2023-04-03T00:02:43.739Z,1.79
2023-04-03T00:04:50.910Z,1.83
2023-04-03T00:06:57.749Z,1.78
2023-04-03T00:09:04.215Z,1.74
2023-04-03T00:11:12.658Z,1.68
2023-04-03T00:13:20.210Z,1.64
2023-04-03T00:15:26.745Z,1.6
2023-04-03T00:17:33.208Z,1.58
2023-04-03T00:19:39.660Z,1.54
2023-04-03T00:21:46.323Z,1.5
2023-04-03T00:23:52.748Z,1.39
2023-04-03T00:26:00.015Z,1.36
2023-04-03T00:28:07.098Z,1.4
2023-04-03T00:30:13.253Z,1.37
2023-04-03T00:32:20.265Z,1.31
2023-04-03T00:34:27.062Z,1.26
2023-04-03T00:36:33.177Z,1.25
2023-04-03T00:38:40.049Z,1.26
2023-04-03T00:40:46.276Z,1.31
2023-04-03T00:42:52.830Z,1.15
2023-04-03T00:45:00.530Z,1.14
2023-04-03T00:47:07.186Z,1.09
2023-04-03T00:49:13.597Z,1.06
2023-04-03T00:51:21.456Z,0.98
2023-04-03T00:53:27.859Z,0.94
2023-04-03T00:55:34.732Z,1.02
2023-04-03T00:57:41.570Z,0.96
2023-04-03T00:59:47.773Z,0.88
2023-04-03T01:01:54.184Z,0.88
2023-04-03T01:04:00.662Z,0.9
2023-04-03T01:06:07.181Z,0.88
2023-04-03T01:08:13.716Z,0.8
2023-04-03T01:10:20.403Z,0.71
2023-04-03T01:12:27.083Z,0.72
2023-04-03T01:14:35.174Z,0.74
2023-04-03T01:16:41.795Z,0.73
2023-04-03T01:18:49.620Z,0.75
2023-04-03T01:20:56.198Z,0.7
2023-04-03T01:23:02.948Z,0.63
2023-04-03T01:25:09.413Z,0.54
2023-04-03T01:27:15.882Z,0.48
2023-04-03T01:29:22.092Z,0.47
2023-04-03T01:31:28.738Z,0.5
2023-04-03T01:33:36.430Z,0.47
2023-04-03T01:35:42.780Z,0.41
2023-04-03T01:37:49.754Z,0.35
2023-04-03T01:39:56.400Z,0.36
2023-04-03T01:42:02.861Z,0.34
2023-04-03T01:44:09.662Z,0.33
2023-04-03T01:46:16.307Z,0.32
2023-04-03T01:48:23.224Z,0.28
2023-04-03T01:50:30.682Z,0.22
2023-04-03T01:52:37.061Z,0.17
2023-04-03T01:54:44.215Z,0.16
2023-04-03T01:56:50.820Z,0.13
2023-04-03T01:58:57.200Z,0.1
2023-04-03T02:01:04.238Z,0.1
2023-04-03T02:03:10.858Z,0.07
2023-04-03T02:05:19.417Z,0.01
2023-04-03T02:07:26.904Z,-0.01
2023-04-03T02:09:33.480Z,0.01
2023-04-03T02:11:39.583Z,-0.01
2023-04-03T02:13:49.072Z,-0.06
2023-04-03T02:15:55.826Z,-0.1
2023-04-03T02:18:02.602Z,-0.23
2023-04-03T02:20:14.114Z,-0.16
2023-04-03T02:22:20.646Z,-0.13
2023-04-03T02:24:27.704Z,-0.24
2023-04-03T02:26:33.780Z,-0.26
2023-04-03T02:28:40.935Z,-0.29
2023-04-03T02:30:47.987Z,-0.28
2023-04-03T02:32:54.816Z,-0.2
2023-04-03T02:35:01.059Z,-0.28
2023-04-03T02:37:07.320Z,-0.3
2023-04-03T02:39:14.145Z,-0.39
2023-04-03T02:41:20.936Z,-0.4
2023-04-03T02:43:27.862Z,-0.38
2023-04-03T02:45:35.080Z,-0.48
2023-04-03T02:47:41.962Z,-0.54
2023-04-03T02:49:48.263Z,-0.52
2023-04-03T02:51:55.910Z,-0.54
2023-04-03T02:54:03.013Z,-0.5
2023-04-03T02:56:09.850Z,-0.58
2023-04-03T02:58:17.000Z,-0.55
2023-04-03T03:00:23.613Z,-0.65
2023-04-03T03:02:30.289Z,-0.72
2023-04-03T03:04:37.661Z,-0.72
2023-04-03T03:06:44.995Z,-0.74
2023-04-03T03:08:51.598Z,-0.68
2023-04-03T03:10:58.090Z,-0.78
2023-04-03T03:13:04.741Z,-0.79
2023-04-03T03:15:11.853Z,-0.81
2023-04-03T03:17:20.125Z,-0.9
2023-04-03T03:19:27.006Z,-1.01
2023-04-03T03:21:35.500Z,-0.97
2023-04-03T03:23:42.583Z,-1
2023-04-03T03:25:49.496Z,-0.93
2023-04-03T03:27:56.129Z,-0.93
2023-04-03T03:30:02.768Z,-0.95
2023-04-03T03:32:08.777Z,-0.99
2023-04-03T03:34:15.052Z,-1
2023-04-03T03:36:21.356Z,-0.98
2023-04-03T03:38:28.423Z,-1
2023-04-03T03:40:35.022Z,-1.08
2023-04-03T03:42:42.712Z,-1.13
2023-04-03T03:44:49.327Z,-1.12
2023-04-03T03:46:55.831Z,-1.12
2023-04-03T03:49:02.608Z,-1.14
2023-04-03T03:51:10.050Z,-1.08
2023-04-03T03:53:16.471Z,-1.11
2023-04-03T03:55:22.965Z,-1.16
2023-04-03T03:57:30.248Z,-1.17
2023-04-03T03:59:38.193Z,-1.19
2023-04-03T04:01:45.144Z,-1.23
2023-04-03T04:03:52.508Z,-1.28
2023-04-03T04:05:59.667Z,-1.33
2023-04-03T04:08:06.319Z,-1.26
2023-04-03T04:10:12.593Z,-1.13
2023-04-03T04:12:19.708Z,-1.17
2023-04-03T04:14:26.929Z,-1.33
2023-04-03T04:16:33.055Z,-1.35
2023-04-03T04:18:40.633Z,-1.35
2023-04-03T04:20:47.729Z,-1.35
2023-04-03T04:22:54.760Z,-1.3
2023-04-03T04:25:01.128Z,-1.29
2023-04-03T04:27:08.713Z,-1.26
2023-04-03T04:29:15.737Z,-1.27
2023-04-03T04:31:23.764Z,-1.27
2023-04-03T04:33:30.847Z,-1.32
2023-04-03T04:35:38.466Z,-1.35
2023-04-03T04:37:45.906Z,-1.34
2023-04-03T04:39:52.697Z,-1.27
2023-04-03T04:41:59.294Z,-1.25
2023-04-03T04:44:06.323Z,-1.25
2023-04-03T04:46:14.079Z,-1.23
2023-04-03T04:48:21.522Z,-1.24
2023-04-03T04:50:28.515Z,-1.24
2023-04-03T04:52:35.971Z,-1.26
2023-04-03T04:54:42.764Z,-1.23
2023-04-03T04:56:50.422Z,-1.17
2023-04-03T04:58:57.780Z,-1.17
2023-04-03T05:01:03.965Z,-1.17
2023-04-03T05:03:11.777Z,-1.19
2023-04-03T05:05:18.531Z,-1.19
2023-04-03T05:07:25.883Z,-1.15
2023-04-03T05:09:33.820Z,-1.17
2023-04-03T05:11:41.310Z,-1.15
2023-04-03T05:13:48.838Z,-1.14
2023-04-03T05:15:56.586Z,-1.15
2023-04-03T05:18:04.627Z,-1.16
2023-04-03T05:20:13.029Z,-1.17
2023-04-03T05:22:20.391Z,-1.16
2023-04-03T05:24:27.906Z,-1.15
2023-04-03T05:26:35.903Z,-1.14
2023-04-03T05:28:43.386Z,-1.14
2023-04-03T05:30:50.844Z,-1.12
2023-04-03T05:32:58.986Z,-1.09
2023-04-03T05:35:06.460Z,-1.05
2023-04-03T05:37:14.639Z,-1.03
2023-04-03T05:39:22.862Z,-0.99
2023-04-03T05:41:30.818Z,-0.93
2023-04-03T05:43:38.595Z,-0.9
2023-04-03T05:45:47.181Z,-0.9
2023-04-03T05:47:54.806Z,-0.87
2023-04-03T05:50:02.644Z,-0.79
2023-04-03T05:52:11.118Z,-0.74
2023-04-03T05:54:18.751Z,-0.73
2023-04-03T05:56:26.840Z,-0.69
2023-04-03T05:58:34.821Z,-0.62
2023-04-03T06:00:41.517Z,-0.59
2023-04-03T06:02:48.967Z,-0.57
2023-04-03T06:04:56.437Z,-0.49
2023-04-03T06:07:04.503Z,-0.34
2023-04-03T06:09:12.579Z,-0.28
2023-04-03T06:11:19.450Z,-0.21
2023-04-03T06:13:26.493Z,-0.08
2023-04-03T06:15:33.851Z,-0.07
2023-04-03T06:17:40.661Z,0.06
2023-04-03T06:19:48.763Z,0.18
2023-04-03T06:21:56.227Z,0.39
2023-04-03T06:24:04.323Z,0.58
2023-04-03T06:26:11.502Z,0.5
2023-04-03T06:28:18.645Z,0.43
2023-04-03T06:30:25.241Z,0.7
2023-04-03T06:32:32.135Z,0.7
2023-04-03T06:34:38.718Z,0.8
2023-04-03T06:36:45.466Z,0.83
2023-04-03T06:38:53.138Z,1.26
2023-04-03T06:41:00.341Z,1.95
2023-04-03T06:43:07.253Z,2.17
2023-04-03T06:45:14.233Z,2.14
2023-04-03T06:47:21.144Z,1.61
2023-04-03T06:49:28.649Z,1.65
2023-04-03T06:51:35.064Z,1.93
2023-04-03T06:53:41.841Z,1.9
2023-04-03T06:55:49.125Z,2.31
2023-04-03T06:57:56.174Z,2.08
2023-04-03T07:00:02.538Z,1.84
2023-04-03T07:02:09.674Z,2.06
2023-04-03T07:04:16.282Z,2.2
2023-04-03T07:06:23.777Z,2.01
2023-04-03T07:08:30.583Z,1.8
2023-04-03T07:10:38.263Z,1.84
2023-04-03T07:12:44.842Z,1.76
2023-04-03T07:14:52.110Z,1.87
2023-04-03T07:16:58.802Z,2.12
2023-04-03T07:19:05.831Z,1.85
2023-04-03T07:21:15.620Z,1.98
2023-04-03T07:23:22.068Z,2.29
2023-04-03T07:25:28.357Z,2.48
2023-04-03T07:27:35.184Z,2.64
2023-04-03T07:29:42.510Z,2.96
2023-04-03T07:31:48.736Z,3.05
2023-04-03T07:33:55.375Z,2.98
2023-04-03T07:36:01.654Z,3.07
2023-04-03T07:38:08.434Z,3.08
2023-04-03T07:40:16.437Z,3.64
2023-04-03T07:42:25.147Z,3.36
2023-04-03T07:44:32.993Z,3.31
2023-04-03T07:46:39.782Z,3.44
2023-04-03T07:48:46.579Z,2.9
2023-04-03T07:50:53.605Z,3.04
2023-04-03T07:53:00.225Z,2.69
2023-04-03T07:55:07.538Z,2.37
2023-04-03T07:57:15.234Z,2.6
2023-04-03T07:59:21.521Z,2.66
2023-04-03T08:01:27.602Z,3.29
2023-04-03T08:03:34.223Z,3.12
2023-04-03T08:05:42.841Z,2.95
2023-04-03T08:07:50.223Z,2.93
2023-04-03T08:09:57.196Z,3.26
2023-04-03T08:12:03.582Z,3.46
2023-04-03T08:14:09.856Z,3.41
2023-04-03T08:16:16.493Z,3.72
2023-04-03T08:18:23.879Z,3.89
2023-04-03T08:20:31.200Z,3.75
2023-04-03T08:22:37.757Z,3.89
2023-04-03T08:24:58.388Z,3.92
2023-04-03T08:27:06.138Z,4.05
2023-04-03T08:29:13.705Z,3.45
2023-04-03T08:31:22.261Z,3.37
2023-04-03T08:33:30.448Z,2.92
2023-04-03T08:35:38.435Z,2.79
2023-04-03T08:37:47.423Z,3.12
2023-04-03T08:39:55.579Z,2.94
2023-04-03T08:42:02.909Z,2.35
2023-04-03T08:44:10.036Z,2.42
2023-04-03T08:46:16.724Z,2.49
2023-04-03T08:48:23.929Z,3.27
2023-04-03T08:50:31.809Z,4.02
2023-04-03T08:52:40.257Z,4.33
2023-04-03T08:54:46.658Z,4.91
2023-04-03T08:56:52.717Z,5.39
2023-04-03T08:58:59.215Z,5.36
2023-04-03T09:01:07.018Z,4.91
2023-04-03T09:03:14.490Z,3.96
2023-04-03T09:05:23.952Z,4.38
2023-04-03T09:07:30.862Z,4.62
2023-04-03T09:09:37.723Z,4.42
2023-04-03T09:11:45.475Z,4.69
2023-04-03T09:13:51.860Z,5.4
2023-04-03T09:15:58.459Z,5.01
2023-04-03T09:18:05.035Z,5.04
2023-04-03T09:20:12.165Z,4.72
2023-04-03T09:22:22.259Z,3.73
2023-04-03T09:24:29.375Z,3.52
2023-04-03T09:26:35.952Z,3.77
2023-04-03T09:28:50.262Z,3.74
2023-04-03T09:30:58.640Z,4.71
2023-04-03T09:33:05.121Z,4.84
2023-04-03T09:35:20.478Z,4.81
2023-04-03T09:37:50.998Z,5.6
2023-04-03T09:39:57.599Z,6.5
2023-04-03T09:42:04.128Z,6.25
2023-04-03T09:44:10.830Z,5.87
2023-04-03T09:46:19.262Z,6.04
2023-04-03T09:48:26.892Z,5.94
2023-04-03T09:50:33.759Z,5.55
2023-04-03T09:52:42.357Z,5.06
2023-04-03T09:54:48.674Z,5
2023-04-03T09:56:55.614Z,5.53
2023-04-03T09:59:03.343Z,5.71
2023-04-03T10:01:10.447Z,5.7
2023-04-03T10:03:17.566Z,4.81
2023-04-03T10:05:24.928Z,4.9
2023-04-03T10:07:31.004Z,5.49
2023-04-03T10:09:38.614Z,6.14
2023-04-03T10:11:45.898Z,5.38
2023-04-03T10:13:52.300Z,5.5
2023-04-03T10:15:58.594Z,5.9
2023-04-03T10:18:14.561Z,6.46
2023-04-03T10:20:29.853Z,7.01
2023-04-03T10:22:35.799Z,7.49
2023-04-03T10:24:42.624Z,6.72
2023-04-03T10:26:49.502Z,7.04
2023-04-03T10:28:56.068Z,6.01
2023-04-03T10:31:02.768Z,4.29
2023-04-03T10:33:09.642Z,4.56
2023-04-03T10:35:17.230Z,5.89
2023-04-03T10:37:24.240Z,6.33
2023-04-03T10:39:31.894Z,5.97
2023-04-03T10:41:38.782Z,5.08
2023-04-03T10:43:45.287Z,4.61
2023-04-03T10:45:52.843Z,4.34
2023-04-03T10:48:00.040Z,4.64
2023-04-03T10:50:06.922Z,5.68
2023-04-03T10:52:15.292Z,5.66
2023-04-03T10:54:22.005Z,6.71
2023-04-03T10:56:28.206Z,7.77
2023-04-03T10:58:35.686Z,6.86
2023-04-03T11:00:42.783Z,5.8
2023-04-03T11:02:49.427Z,5.73
2023-04-03T11:04:55.992Z,5.95
2023-04-03T11:07:02.226Z,4.59
2023-04-03T11:09:08.582Z,5.03
2023-04-03T11:11:15.506Z,5.78
2023-04-03T11:13:21.571Z,6.31
2023-04-03T11:15:28.554Z,6.92
2023-04-03T11:17:37.573Z,7.19
2023-04-03T11:19:45.405Z,5.52
2023-04-03T11:21:51.875Z,5.06
2023-04-03T11:23:58.337Z,5.19
2023-04-03T11:26:04.888Z,5.48
2023-04-03T11:28:11.279Z,5.64
2023-04-03T11:30:17.675Z,6.77
2023-04-03T11:32:24.944Z,6.95
2023-04-03T11:34:32.055Z,8.35
2023-04-03T11:36:38.362Z,7.63
2023-04-03T11:38:46.018Z,6.63
2023-04-03T11:40:54.203Z,6.03
2023-04-03T11:43:03.327Z,5.73
2023-04-03T11:45:11.246Z,5.28
2023-04-03T11:47:20.417Z,5.47
2023-04-03T11:49:27.601Z,6.05
2023-04-03T11:51:36.250Z,6.31
2023-04-03T11:53:44.152Z,5.67
2023-04-03T11:55:51.024Z,5.14
2023-04-03T11:57:58.732Z,4.71
2023-04-03T12:00:06.839Z,4.77
2023-04-03T12:02:14.367Z,5.2
2023-04-03T12:04:21.179Z,5.46
2023-04-03T12:06:29.962Z,5.62
2023-04-03T12:08:37.444Z,5.5
2023-04-03T12:10:45.436Z,4.91
2023-04-03T12:12:52.563Z,4.57
2023-04-03T12:14:59.076Z,4.86
2023-04-03T12:17:06.325Z,5.13
2023-04-03T12:19:14.478Z,4.63
2023-04-03T12:21:26.244Z,4.4
2023-04-03T12:23:33.306Z,4.4
2023-04-03T12:25:42.018Z,5.21
2023-04-03T12:27:49.625Z,5.89
2023-04-03T12:29:57.209Z,6.18
2023-04-03T12:32:04.160Z,5.92
2023-04-03T12:34:12.144Z,4.9
2023-04-03T12:36:21.201Z,4.98
2023-04-03T12:38:28.889Z,5
2023-04-03T12:40:35.944Z,4.82
2023-04-03T12:42:47.683Z,5.14
2023-04-03T12:44:54.616Z,5.03
2023-04-03T12:47:02.134Z,5.15
2023-04-03T12:49:09.987Z,5.41
2023-04-03T12:51:17.001Z,5.31
2023-04-03T12:53:24.281Z,5.16
2023-04-03T12:55:32.075Z,5.37
2023-04-03T12:57:39.741Z,5.6
2023-04-03T12:59:47.561Z,5.48
2023-04-03T13:01:55.762Z,5.57
2023-04-03T13:04:03.346Z,6.21
2023-04-03T13:06:10.884Z,5.68
2023-04-03T13:08:18.830Z,5.4
2023-04-03T13:10:26.558Z,5.75
2023-04-03T13:12:34.158Z,5.47
2023-04-03T13:14:41.384Z,5.47
2023-04-03T13:16:47.924Z,5.33
2023-04-03T13:18:54.935Z,5.38
2023-04-03T13:21:02.029Z,5.48
2023-04-03T13:23:08.999Z,5.6
2023-04-03T13:25:17.665Z,5.79
2023-04-03T13:27:24.122Z,5.96
2023-04-03T13:29:31.933Z,5.99
2023-04-03T13:31:40.497Z,5.88
2023-04-03T13:33:49.172Z,5.44
2023-04-03T13:35:57.653Z,5.54
2023-04-03T13:38:07.324Z,5.54
2023-04-03T13:40:15.810Z,5.79
2023-04-03T13:42:23.547Z,5.28
2023-04-03T13:44:31.058Z,5.62
2023-04-03T13:46:37.582Z,5.52
2023-04-03T13:48:45.476Z,5.13
2023-04-03T13:53:14.197Z,5.16
2023-04-03T13:55:25.558Z,5.25
2023-04-03T13:57:34.122Z,5.45
2023-04-03T13:59:42.381Z,5.17
2023-04-03T14:01:50.763Z,5.47
2023-04-03T14:03:58.430Z,5.87
2023-04-03T14:06:06.047Z,5.92
2023-04-03T14:08:13.708Z,5.79
2023-04-03T14:10:24.965Z,5.89
2023-04-03T14:12:32.947Z,5.7
2023-04-03T14:14:40.565Z,5.23
2023-04-03T14:16:47.805Z,5.14
2023-04-03T14:18:56.124Z,5.06
2023-04-03T14:21:04.767Z,5.18
2023-04-03T14:23:13.449Z,4.89
2023-04-03T14:25:21.357Z,4.88
2023-04-03T14:27:29.641Z,4.87
2023-04-03T14:29:37.284Z,5.13
2023-04-03T14:31:44.838Z,5.07
2023-04-03T14:34:03.610Z,5
2023-04-03T14:36:11.293Z,5
2023-04-03T14:38:19.291Z,4.91
2023-04-03T14:40:27.514Z,4.94
2023-04-03T14:42:34.933Z,4.96
2023-04-03T14:44:45.262Z,5.12
2023-04-03T14:46:56.618Z,5.37
2023-04-03T14:49:04.977Z,5.34
2023-04-03T14:51:12.577Z,5.41
2023-04-03T14:53:23.515Z,4.94
2023-04-03T14:55:46.839Z,4.93
2023-04-03T14:57:54.864Z,4.74
2023-04-03T15:00:02.889Z,4.79
2023-04-03T15:02:10.808Z,4.79
2023-04-03T15:04:20.311Z,4.77
2023-04-03T15:06:28.424Z,4.93
2023-04-03T15:08:35.165Z,4.81
2023-04-03T15:10:43.001Z,4.84
2023-04-03T15:12:50.770Z,4.67
2023-04-03T15:15:01.969Z,4.62
2023-04-03T15:17:10.657Z,4.58
2023-04-03T15:19:19.217Z,4.6
2023-04-03T15:21:26.912Z,4.6
2023-04-03T15:23:34.107Z,4.62
2023-04-03T15:25:42.848Z,4.54
2023-04-03T15:27:50.770Z,4.53
2023-04-03T15:30:00.826Z,4.37
2023-04-03T15:32:08.748Z,4.3
2023-04-03T15:34:16.660Z,4.28
2023-04-03T15:36:33.803Z,4.34
2023-04-03T15:40:52.787Z,4.48
2023-04-03T15:43:01.244Z,4.43
2023-04-03T15:45:09.073Z,4.39
2023-04-03T15:47:16.886Z,4.32
2023-04-03T15:49:25.822Z,4.32
2023-04-03T15:51:33.979Z,4.29
2023-04-03T15:53:41.818Z,4.33
2023-04-03T15:55:49.706Z,4.35
2023-04-03T15:57:57.612Z,4.34
2023-04-03T16:00:05.567Z,4.24
2023-04-03T16:02:13.265Z,4.17
2023-04-03T16:04:20.968Z,4.17
2023-04-03T16:06:28.735Z,4.13
2023-04-03T16:08:37.285Z,4.04
2023-04-03T16:10:44.982Z,4.05
2023-04-03T16:12:52.804Z,3.99
2023-04-03T16:15:01.899Z,4.05
2023-04-03T16:17:10.472Z,3.97
2023-04-03T16:19:23.984Z,3.9
2023-04-03T16:21:32.638Z,3.88
2023-04-03T16:23:40.675Z,3.83
2023-04-03T16:25:48.358Z,3.78
2023-04-03T16:27:56.672Z,3.77
2023-04-03T16:30:04.134Z,3.7
2023-04-03T16:32:12.105Z,3.66
2023-04-03T16:34:19.830Z,3.61
2023-04-03T16:36:28.031Z,3.63
2023-04-03T16:38:36.328Z,3.66
2023-04-03T16:40:43.926Z,3.65
2023-04-03T16:42:51.829Z,3.62
2023-04-03T16:44:59.664Z,3.58
2023-04-03T16:47:08.374Z,3.56
2023-04-03T16:49:17.598Z,3.5
2023-04-03T16:51:26.841Z,3.45
2023-04-03T16:53:37.479Z,3.44
2023-04-03T16:55:46.850Z,3.46
2023-04-03T16:57:55.779Z,3.44
2023-04-03T17:00:05.234Z,3.38
2023-04-03T17:02:13.385Z,3.37
2023-04-03T17:04:22.352Z,3.31
2023-04-03T17:06:33.439Z,3.23
2023-04-03T17:08:41.100Z,3.24
2023-04-03T17:10:51.357Z,3.18
2023-04-03T17:13:03.719Z,3.15
2023-04-03T17:15:19.922Z,3.18
2023-04-03T17:17:28.122Z,3.2
2023-04-03T17:19:36.076Z,3.22
2023-04-03T17:21:46.203Z,3.17
2023-04-03T17:23:55.148Z,3.17
2023-04-03T17:26:03.965Z,3.21
2023-04-03T17:28:17.887Z,3.18
2023-04-03T17:30:28.816Z,3.17
2023-04-03T17:32:40.807Z,3.18
2023-04-03T17:34:49.952Z,3.15
2023-04-03T17:36:59.782Z,3.13
2023-04-03T17:39:10.337Z,3.11
2023-04-03T17:41:24.334Z,3.11
2023-04-03T17:43:34.423Z,3.12
2023-04-03T17:45:43.776Z,3.13
2023-04-03T17:47:52.802Z,3.08
2023-04-03T17:50:03.025Z,3.03
2023-04-03T17:52:12.247Z,2.97
2023-04-03T17:54:22.813Z,2.95
2023-04-03T17:56:33.850Z,2.97
2023-04-03T17:58:44.124Z,3.03
2023-04-03T18:00:52.784Z,3.02
2023-04-03T18:03:02.554Z,2.98
2023-04-03T18:05:20.788Z,2.9
2023-04-03T18:07:34.969Z,2.78
2023-04-03T18:09:44.520Z,2.75
2023-04-03T18:11:53.880Z,2.75
2023-04-03T18:14:09.302Z,2.77
2023-04-03T18:16:24.548Z,2.77
2023-04-03T18:18:35.810Z,2.85
2023-04-03T18:20:46.845Z,2.85
2023-04-03T18:23:00.345Z,2.89
2023-04-03T18:25:18.193Z,2.85
2023-04-03T18:27:28.642Z,2.85
2023-04-03T18:29:46.563Z,2.82
2023-04-03T18:31:56.543Z,2.82
2023-04-03T18:34:11.530Z,2.73
2023-04-03T18:36:21.699Z,2.65
2023-04-03T18:38:36.519Z,2.55
2023-04-03T18:40:52.218Z,2.54
2023-04-03T18:43:07.543Z,2.63
2023-04-03T18:45:23.922Z,2.67
2023-04-03T18:47:37.791Z,2.64
2023-04-03T18:49:48.696Z,2.61
2023-04-03T18:51:59.596Z,2.6
2023-04-03T18:54:10.167Z,2.62
2023-04-03T18:56:22.183Z,2.6
2023-04-03T18:58:32.628Z,2.55
2023-04-03T19:00:44.685Z,2.49
2023-04-03T19:02:56.787Z,2.47
2023-04-03T19:05:09.909Z,2.47
2023-04-03T19:07:24.495Z,2.42
2023-04-03T19:09:33.964Z,2.4
2023-04-03T19:11:54.566Z,2.38
2023-04-03T19:14:15.713Z,2.35
2023-04-03T19:16:30.447Z,2.35
2023-04-03T19:18:39.913Z,2.39
2023-04-03T19:20:48.906Z,2.36
2023-04-03T19:23:01.472Z,2.37
2023-04-03T19:25:13.137Z,2.35
2023-04-03T19:27:27.916Z,2.41
2023-04-03T19:29:38.736Z,2.4
2023-04-03T19:31:56.934Z,2.42
2023-04-03T19:34:06.793Z,2.42
2023-04-03T19:36:17.589Z,2.38
2023-04-03T19:38:33.414Z,2.37
2023-04-03T19:40:42.037Z,2.38
2023-04-03T19:42:51.857Z,2.34
2023-04-03T19:45:07.745Z,2.28
2023-04-03T19:47:14.793Z,2.27
2023-04-03T19:49:27.465Z,2.27
2023-04-03T19:51:38.956Z,2.24
2023-04-03T19:53:52.847Z,2.21
2023-04-03T19:56:02.271Z,2.2
2023-04-03T19:58:13.167Z,2.12
2023-04-03T20:00:22.002Z,2.13
2023-04-03T20:04:59.087Z,2.01
2023-04-03T20:07:09.492Z,1.94
2023-04-03T20:09:19.425Z,1.87
2023-04-03T20:11:28.419Z,1.85
2023-04-03T20:13:38.912Z,1.78
2023-04-03T20:15:54.466Z,1.66
2023-04-03T20:18:07.343Z,1.6
2023-04-03T20:20:16.548Z,1.55
2023-04-03T20:22:24.862Z,1.49
2023-04-03T20:24:34.383Z,1.41
2023-04-03T20:26:43.292Z,1.35
2023-04-03T20:28:53.148Z,1.31
2023-04-03T20:31:00.220Z,1.3
2023-04-03T20:35:28.325Z,1.45
2023-04-03T20:37:38.335Z,1.43
2023-04-03T20:39:46.293Z,1.37
2023-04-03T20:41:53.480Z,1.33
2023-04-03T20:44:00.891Z,1.27
2023-04-03T20:46:08.643Z,1.25
2023-04-03T20:48:15.841Z,1.23
2023-04-03T20:50:22.652Z,1.22
2023-04-03T20:52:30.146Z,1.22
2023-04-03T20:54:40.328Z,1.22
2023-04-03T20:56:47.765Z,1.26
2023-04-03T20:58:55.878Z,1.24
2023-04-03T21:01:03.644Z,1.19
2023-04-03T21:03:11.942Z,1.17
2023-04-03T21:05:18.562Z,1.15
2023-04-03T21:07:25.062Z,1.2
2023-04-03T21:09:34.038Z,1.09
2023-04-03T21:11:41.974Z,0.97
2023-04-03T21:13:50.000Z,0.86
2023-04-03T21:15:57.651Z,0.79
2023-04-03T21:18:05.343Z,0.87
2023-04-03T21:20:14.016Z,0.98
2023-04-03T21:22:20.535Z,1
2023-04-03T21:24:28.819Z,1.08
2023-04-03T21:26:36.046Z,1.09
2023-04-03T21:28:43.104Z,1.05
2023-04-03T21:30:50.963Z,1.02
2023-04-03T21:32:58.477Z,0.97
2023-04-03T21:35:05.469Z,0.95
2023-04-03T21:37:12.357Z,0.93
2023-04-03T21:39:19.119Z,1.04
2023-04-03T21:41:26.525Z,1.03
2023-04-03T21:43:33.712Z,0.98
2023-04-03T21:45:40.216Z,0.96
2023-04-03T21:47:47.211Z,0.96
2023-04-03T21:49:53.815Z,0.96
2023-04-03T21:52:00.536Z,0.97
2023-04-03T21:54:08.566Z,0.89
2023-04-03T21:56:15.524Z,0.88
2023-04-03T21:58:22.159Z,0.88
2023-04-03T22:00:28.700Z,0.87
2023-04-03T22:05:13.901Z,0.87
2023-04-03T22:07:20.360Z,0.89
2023-04-03T22:09:27.238Z,0.89
2023-04-03T22:11:33.919Z,0.92
2023-04-03T22:13:41.270Z,0.92
2023-04-03T22:15:49.298Z,0.93
2023-04-03T22:17:55.930Z,0.91
2023-04-03T22:20:02.883Z,0.91
2023-04-03T22:22:10.242Z,0.92
2023-04-03T22:24:16.949Z,0.92
2023-04-03T22:26:23.766Z,0.9
2023-04-03T22:28:31.006Z,0.89
2023-04-03T22:30:38.114Z,0.85
2023-04-03T22:32:45.472Z,0.83
2023-04-03T22:34:51.972Z,0.82
2023-04-03T22:36:58.580Z,0.79
2023-04-03T22:39:06.992Z,0.8
2023-04-03T22:41:14.393Z,0.8
2023-04-03T22:43:23.512Z,0.82
2023-04-03T22:45:29.720Z,0.83
2023-04-03T22:47:36.899Z,0.81
2023-04-03T22:49:43.500Z,0.83
2023-04-03T22:51:49.561Z,0.8
2023-04-03T22:53:56.892Z,0.79
2023-04-03T22:56:03.446Z,0.75
2023-04-03T22:58:09.488Z,0.74
2023-04-03T23:00:16.630Z,0.68
2023-04-03T23:02:23.627Z,0.68
2023-04-03T23:04:30.235Z,0.68
2023-04-03T23:06:37.310Z,0.63
2023-04-03T23:08:44.121Z,0.59
2023-04-03T23:10:50.450Z,0.59
2023-04-03T23:12:57.017Z,0.58
2023-04-03T23:15:04.376Z,0.52
2023-04-03T23:17:10.735Z,0.55
2023-04-03T23:19:18.048Z,0.52
2023-04-03T23:21:25.240Z,0.48
2023-04-03T23:23:31.742Z,0.44
2023-04-03T23:25:38.731Z,0.46
2023-04-03T23:27:45.044Z,0.46
2023-04-03T23:29:51.907Z,0.43
2023-04-03T23:32:01.318Z,0.43
2023-04-03T23:34:07.855Z,0.39
2023-04-03T23:36:14.462Z,0.36
2023-04-03T23:38:21.375Z,0.34
2023-04-03T23:40:27.813Z,0.33
2023-04-03T23:42:34.424Z,0.29
2023-04-03T23:44:40.528Z,0.28
2023-04-03T23:46:47.182Z,0.25
2023-04-03T23:48:54.008Z,0.24
2023-04-03T23:51:04.325Z,0.22
2023-04-03T23:53:11.213Z,0.19
2023-04-03T23:55:18.846Z,0.17
2023-04-03T23:57:25.043Z,0.15
2023-04-03T23:59:32.113Z,0.15
